sim
Sign-in with your pilot id or email,
or register
Callsign
Passwort

Schedule Details

Flight Number: EWG9224 (2)
Departure: Dusseldorf International Airport (EDDL) at 16:05
Arrival: Gothenburg Landvetter Airport (ESGG) at 18:05
Route: Eurowings Passenger Schedule. Enter filed route here before submitting Pirep.

Weather Information
Getting current METAR information for EDDL 251250Z 20011KT 9999 -RA FEW020 SCT030 13/10 Q1002 NOSIG
Getting current METAR information for ESGG 251250Z 20019KT 9000 -RA BKN008 11/10 Q0998

Schedule Frequency

Route Map